createdAt,value
2017-08-06T00:00:42.911Z,242
2017-08-06T00:01:50.389Z,242
2017-08-06T00:02:57.865Z,242
2017-08-06T00:04:05.344Z,242
2017-08-06T00:05:13.120Z,242
2017-08-06T00:06:20.600Z,242
2017-08-06T00:07:28.078Z,242
2017-08-06T00:08:35.555Z,242
2017-08-06T00:09:43.034Z,242
2017-08-06T00:10:50.484Z,242
2017-08-06T00:11:57.634Z,242
2017-08-06T00:13:04.782Z,241
2017-08-06T00:14:12.260Z,242
2017-08-06T00:15:34.318Z,242
2017-08-06T00:16:42.096Z,242
2017-08-06T00:17:49.248Z,242
2017-08-06T00:18:56.725Z,241
2017-08-06T00:20:04.202Z,242
2017-08-06T00:21:11.681Z,241
2017-08-06T00:22:19.457Z,241
2017-08-06T00:23:26.936Z,241
2017-08-06T00:24:34.416Z,241
2017-08-06T00:25:41.892Z,241
2017-08-06T00:26:48.728Z,241
2017-08-06T00:27:56.495Z,241
2017-08-06T00:29:03.989Z,241
2017-08-06T00:30:11.474Z,242
2017-08-06T00:31:18.968Z,242
2017-08-06T00:32:26.451Z,242
2017-08-06T00:33:34.225Z,242
2017-08-06T00:34:41.719Z,242
2017-08-06T00:35:49.198Z,242
2017-08-06T00:36:56.671Z,241
2017-08-06T00:38:03.829Z,242
2017-08-06T00:39:11.609Z,241
2017-08-06T00:40:19.087Z,242
2017-08-06T00:41:26.565Z,242
2017-08-06T00:42:33.712Z,242
2017-08-06T00:43:41.200Z,242
2017-08-06T00:44:48.983Z,242
2017-08-06T00:45:56.451Z,242
2017-08-06T00:47:03.603Z,242
2017-08-06T00:48:10.760Z,242
2017-08-06T00:49:18.236Z,242
2017-08-06T00:50:26.034Z,242
2017-08-06T00:51:33.506Z,242
2017-08-06T00:52:41.016Z,241
2017-08-06T00:53:47.832Z,242
2017-08-06T00:54:55.307Z,242
2017-08-06T00:56:03.081Z,242
2017-08-06T00:57:10.226Z,242
2017-08-06T00:58:17.703Z,242
2017-08-06T00:59:25.185Z,242
2017-08-06T01:00:32.664Z,241
2017-08-06T01:01:40.442Z,242
2017-08-06T01:02:47.932Z,242
2017-08-06T01:03:55.406Z,241
2017-08-06T01:05:02.893Z,241
2017-08-06T01:06:10.366Z,241
2017-08-06T01:07:18.144Z,242
2017-08-06T01:08:25.624Z,241
2017-08-06T01:09:33.114Z,241
2017-08-06T01:10:40.600Z,241
2017-08-06T01:11:47.762Z,240
2017-08-06T01:12:55.542Z,241
2017-08-06T01:14:03.016Z,241
2017-08-06T01:15:10.500Z,241
2017-08-06T01:16:17.974Z,241
2017-08-06T01:17:25.450Z,241
2017-08-06T01:18:33.229Z,241
2017-08-06T01:19:40.707Z,242
2017-08-06T01:20:48.189Z,241
2017-08-06T01:21:55.685Z,242
2017-08-06T01:23:03.161Z,241
2017-08-06T01:24:10.933Z,241
2017-08-06T01:25:18.079Z,241
2017-08-06T01:26:25.557Z,241
2017-08-06T01:27:33.032Z,242
2017-08-06T01:28:40.549Z,241
2017-08-06T01:29:48.346Z,241
2017-08-06T01:30:55.488Z,240
2017-08-06T01:32:02.969Z,240
2017-08-06T01:33:10.446Z,240
2017-08-06T01:34:17.929Z,240
2017-08-06T01:35:25.710Z,240
2017-08-06T01:36:33.201Z,240
2017-08-06T01:37:40.683Z,240
2017-08-06T01:38:48.161Z,240
2017-08-06T01:39:55.639Z,240
2017-08-06T01:41:03.417Z,241
2017-08-06T01:42:10.892Z,240
2017-08-06T01:43:18.369Z,240
2017-08-06T01:44:25.522Z,240
2017-08-06T01:45:32.682Z,240
2017-08-06T01:46:40.461Z,240
2017-08-06T01:47:47.982Z,247
2017-08-06T01:48:55.464Z,254
2017-08-06T01:50:02.935Z,253
2017-08-06T01:51:10.417Z,253
2017-08-06T01:52:17.861Z,252
2017-08-06T01:53:25.346Z,252
2017-08-06T01:54:32.824Z,253
2017-08-06T01:55:39.969Z,255
2017-08-06T01:56:47.118Z,254
2017-08-06T01:57:54.901Z,258
2017-08-06T01:59:02.388Z,259
2017-08-06T02:00:09.864Z,254
2017-08-06T02:01:17.353Z,256
2017-08-06T02:02:24.504Z,258
2017-08-06T02:03:32.281Z,259
2017-08-06T02:04:39.757Z,258
2017-08-06T02:05:47.252Z,255
2017-08-06T02:06:54.725Z,253
2017-08-06T02:08:02.203Z,252
2017-08-06T02:09:09.980Z,253
2017-08-06T02:10:17.454Z,253
2017-08-06T02:11:24.931Z,254
2017-08-06T02:12:32.408Z,256
2017-08-06T02:13:39.558Z,264
2017-08-06T02:14:47.338Z,265
2017-08-06T02:15:54.818Z,256
2017-08-06T02:17:01.983Z,252
2017-08-06T02:18:09.473Z,252
2017-08-06T02:19:16.952Z,250
2017-08-06T02:20:24.733Z,253
2017-08-06T02:21:31.883Z,252
2017-08-06T02:22:39.365Z,251
2017-08-06T02:23:46.868Z,251
2017-08-06T02:24:54.340Z,251
2017-08-06T02:26:02.135Z,250
2017-08-06T02:27:09.280Z,250
2017-08-06T02:28:16.757Z,251
2017-08-06T02:29:24.235Z,253
2017-08-06T02:30:31.720Z,257
2017-08-06T02:31:39.499Z,243
2017-08-06T02:32:46.667Z,247
2017-08-06T02:33:54.147Z,248
2017-08-06T02:35:01.626Z,247
2017-08-06T02:36:08.785Z,246
2017-08-06T02:37:16.572Z,247
2017-08-06T02:38:24.056Z,246
2017-08-06T02:39:30.877Z,246
2017-08-06T02:40:38.354Z,246
2017-08-06T02:41:45.830Z,246
2017-08-06T02:42:53.623Z,246
2017-08-06T02:44:00.765Z,246
2017-08-06T02:45:08.254Z,246
2017-08-06T02:46:15.732Z,246
2017-08-06T02:47:22.880Z,246
2017-08-06T02:48:30.655Z,246
2017-08-06T02:49:38.139Z,246
2017-08-06T02:50:45.612Z,246
2017-08-06T02:51:53.085Z,246
2017-08-06T02:53:00.558Z,246
2017-08-06T02:54:08.334Z,246
2017-08-06T02:55:15.485Z,246
2017-08-06T02:56:22.965Z,246
2017-08-06T02:57:30.113Z,246
2017-08-06T02:58:37.344Z,246
2017-08-06T02:59:45.122Z,247
2017-08-06T03:00:52.599Z,247
2017-08-06T03:02:00.101Z,246
2017-08-06T03:03:07.576Z,247
2017-08-06T03:04:15.062Z,246
2017-08-06T03:05:22.839Z,247
2017-08-06T03:06:29.999Z,247
2017-08-06T03:07:37.478Z,248
2017-08-06T03:08:44.959Z,317
2017-08-06T03:09:52.442Z,343
2017-08-06T03:11:00.241Z,337
2017-08-06T03:12:07.385Z,373
2017-08-06T03:13:14.866Z,420
2017-08-06T03:14:22.022Z,403
2017-08-06T03:15:29.493Z,444
2017-08-06T03:16:36.930Z,419
2017-08-06T03:17:44.081Z,452
2017-08-06T03:18:51.556Z,465
2017-08-06T03:19:58.696Z,468
2017-08-06T03:21:05.864Z,435
2017-08-06T03:22:13.674Z,422
2017-08-06T03:23:21.167Z,419
2017-08-06T03:24:28.646Z,417
2017-08-06T03:25:36.114Z,414
2017-08-06T03:26:43.596Z,411
2017-08-06T03:27:51.382Z,411
2017-08-06T03:28:58.853Z,412
2017-08-06T03:30:06.335Z,403
2017-08-06T03:31:13.814Z,402
2017-08-06T03:32:21.294Z,403
2017-08-06T03:33:29.068Z,406
2017-08-06T03:34:36.544Z,407
2017-08-06T03:35:44.026Z,406
2017-08-06T03:36:51.499Z,407
2017-08-06T03:37:58.980Z,406
2017-08-06T03:39:06.439Z,406
2017-08-06T03:40:13.933Z,407
2017-08-06T03:41:21.412Z,408
2017-08-06T03:42:28.901Z,410
2017-08-06T03:43:36.384Z,411
2017-08-06T03:44:43.830Z,413
2017-08-06T03:45:51.301Z,416
2017-08-06T03:46:58.782Z,420
2017-08-06T03:48:06.256Z,425
2017-08-06T03:49:13.734Z,435
2017-08-06T03:50:22.123Z,444
2017-08-06T03:51:29.598Z,438
2017-08-06T03:52:37.076Z,448
2017-08-06T03:53:44.221Z,436
2017-08-06T03:54:51.692Z,460
2017-08-06T03:55:59.467Z,442
2017-08-06T03:57:06.956Z,468
2017-08-06T03:58:14.450Z,449
2017-08-06T03:59:21.960Z,444
2017-08-06T04:00:29.443Z,446
2017-08-06T04:01:37.219Z,448
2017-08-06T04:02:44.699Z,445
2017-08-06T04:03:52.177Z,447
2017-08-06T04:04:59.651Z,450
2017-08-06T04:06:07.129Z,425
2017-08-06T04:07:14.913Z,438
2017-08-06T04:08:22.077Z,439
2017-08-06T04:09:29.557Z,439
2017-08-06T04:10:37.035Z,441
2017-08-06T04:11:44.506Z,439
2017-08-06T04:12:52.291Z,442
2017-08-06T04:13:59.777Z,441
2017-08-06T04:15:07.262Z,448
2017-08-06T04:16:14.732Z,566
2017-08-06T04:17:22.210Z,554
2017-08-06T04:18:29.663Z,537
2017-08-06T04:19:36.807Z,548
2017-08-06T04:20:44.280Z,556
2017-08-06T04:21:51.764Z,544
2017-08-06T04:22:58.915Z,545
2017-08-06T04:24:06.687Z,548
2017-08-06T04:25:14.169Z,532
2017-08-06T04:26:21.647Z,520
2017-08-06T04:27:29.129Z,519
2017-08-06T04:28:36.604Z,519
2017-08-06T04:29:44.063Z,560
2017-08-06T04:30:51.216Z,539
2017-08-06T04:31:58.690Z,521
2017-08-06T04:33:06.167Z,521
2017-08-06T04:34:13.310Z,560
2017-08-06T04:35:21.083Z,554
2017-08-06T04:36:28.561Z,552
2017-08-06T04:37:36.060Z,542
2017-08-06T04:38:43.200Z,519
2017-08-06T04:39:50.694Z,565
2017-08-06T04:40:58.481Z,490
2017-08-06T04:42:05.946Z,489
2017-08-06T04:43:13.427Z,486
2017-08-06T04:44:20.901Z,485
2017-08-06T04:45:28.388Z,489
2017-08-06T04:46:36.156Z,487
2017-08-06T04:47:43.635Z,485
2017-08-06T04:48:51.111Z,482
2017-08-06T04:49:58.585Z,480
2017-08-06T04:51:06.057Z,481
2017-08-06T04:52:13.870Z,481
2017-08-06T04:53:21.342Z,480
2017-08-06T04:54:28.489Z,479
2017-08-06T04:55:35.964Z,480
2017-08-06T04:56:44.156Z,481
2017-08-06T04:57:51.928Z,482
2017-08-06T04:58:59.403Z,483
2017-08-06T05:00:06.974Z,482
2017-08-06T05:01:14.444Z,482
2017-08-06T05:02:21.943Z,484
2017-08-06T05:03:29.717Z,484
2017-08-06T05:04:37.194Z,483
2017-08-06T05:05:44.674Z,484
2017-08-06T05:06:52.155Z,487
2017-08-06T05:07:59.635Z,487
2017-08-06T05:09:07.412Z,487
2017-08-06T05:10:14.887Z,485
2017-08-06T05:11:22.362Z,484
2017-08-06T05:12:29.837Z,485
2017-08-06T05:13:37.310Z,485
2017-08-06T05:14:45.084Z,486
2017-08-06T05:15:52.227Z,485
2017-08-06T05:16:59.699Z,485
2017-08-06T05:18:07.177Z,486
2017-08-06T05:19:14.657Z,485
2017-08-06T05:20:22.459Z,484
2017-08-06T05:21:29.938Z,484
2017-08-06T05:22:37.421Z,485
2017-08-06T05:23:44.908Z,485
2017-08-06T05:24:52.392Z,484
2017-08-06T05:26:00.161Z,483
2017-08-06T05:27:07.645Z,487
2017-08-06T05:28:15.121Z,483
2017-08-06T05:29:22.600Z,482
2017-08-06T05:30:30.070Z,481
2017-08-06T05:31:37.849Z,482
2017-08-06T05:32:45.328Z,483
2017-08-06T05:33:52.810Z,483
2017-08-06T05:35:00.311Z,484
2017-08-06T05:36:07.785Z,487
2017-08-06T05:37:15.564Z,491
2017-08-06T05:38:23.053Z,508
2017-08-06T05:39:30.535Z,511
2017-08-06T05:40:38.007Z,505
2017-08-06T05:41:45.483Z,509
2017-08-06T05:42:53.259Z,511
2017-08-06T05:44:00.742Z,517
2017-08-06T05:45:08.228Z,504
2017-08-06T05:46:15.703Z,514
2017-08-06T05:47:23.183Z,509
2017-08-06T05:48:30.957Z,499
2017-08-06T05:49:38.101Z,492
2017-08-06T05:50:45.249Z,513
2017-08-06T05:51:52.405Z,506
2017-08-06T05:52:59.552Z,510
2017-08-06T05:54:07.347Z,520
2017-08-06T05:55:14.823Z,526
2017-08-06T05:56:22.298Z,529
2017-08-06T05:57:29.772Z,491
2017-08-06T05:58:37.244Z,500
2017-08-06T05:59:45.021Z,508
2017-08-06T06:00:52.496Z,502
2017-08-06T06:01:59.995Z,514
2017-08-06T06:03:07.468Z,518
2017-08-06T06:04:14.951Z,500
2017-08-06T06:05:22.731Z,518
2017-08-06T06:06:30.207Z,507
2017-08-06T06:07:37.689Z,512
2017-08-06T06:08:45.173Z,502
2017-08-06T06:09:52.653Z,511
2017-08-06T06:11:02.316Z,506
2017-08-06T06:12:09.795Z,504
2017-08-06T06:13:17.271Z,508
2017-08-06T06:14:24.750Z,509
2017-08-06T06:15:32.228Z,519
2017-08-06T06:16:40.018Z,511
2017-08-06T06:17:47.513Z,506
2017-08-06T06:18:54.992Z,509
2017-08-06T06:20:02.144Z,505
2017-08-06T06:21:09.621Z,516
2017-08-06T06:22:17.402Z,493
2017-08-06T06:23:24.875Z,487
2017-08-06T06:24:32.366Z,508
2017-08-06T06:25:39.515Z,496
2017-08-06T06:26:46.996Z,507
2017-08-06T06:27:54.775Z,511
2017-08-06T06:29:02.249Z,584
2017-08-06T06:30:09.738Z,469
2017-08-06T06:31:17.216Z,480
2017-08-06T06:32:24.696Z,774
2017-08-06T06:33:32.478Z,817
2017-08-06T06:34:39.626Z,839
2017-08-06T06:35:46.778Z,844
2017-08-06T06:36:54.260Z,846
2017-08-06T06:38:01.415Z,476
2017-08-06T06:39:09.212Z,862
2017-08-06T06:40:16.685Z,867
2017-08-06T06:41:24.167Z,873
2017-08-06T06:42:31.665Z,874
2017-08-06T06:43:39.144Z,878
2017-08-06T06:44:46.939Z,881
2017-08-06T06:45:54.419Z,883
2017-08-06T06:47:01.585Z,887
2017-08-06T06:48:08.729Z,550
2017-08-06T06:49:16.221Z,894
2017-08-06T06:50:23.996Z,904
2017-08-06T06:51:31.162Z,904
2017-08-06T06:52:38.314Z,906
2017-08-06T06:53:45.813Z,907
2017-08-06T06:54:53.522Z,906
2017-08-06T06:56:01.306Z,484
2017-08-06T06:57:08.462Z,490
2017-08-06T06:58:15.945Z,496
2017-08-06T06:59:23.428Z,502
2017-08-06T07:00:30.918Z,507
2017-08-06T07:01:38.691Z,511
2017-08-06T07:02:46.174Z,516
2017-08-06T07:03:53.660Z,518
2017-08-06T07:05:01.137Z,523
2017-08-06T07:06:08.631Z,525
2017-08-06T07:07:16.401Z,527
2017-08-06T07:08:23.882Z,531
2017-08-06T07:09:31.367Z,535
2017-08-06T07:10:40.440Z,537
2017-08-06T07:11:47.917Z,541
2017-08-06T07:12:55.712Z,544
2017-08-06T07:14:03.190Z,546
2017-08-06T07:15:10.677Z,549
2017-08-06T07:16:18.157Z,553
2017-08-06T07:17:25.636Z,556
2017-08-06T07:18:33.409Z,560
2017-08-06T07:19:40.891Z,562
2017-08-06T07:20:48.039Z,566
2017-08-06T07:21:55.524Z,568
2017-08-06T07:23:03.009Z,571
2017-08-06T07:24:10.790Z,573
2017-08-06T07:25:18.267Z,575
2017-08-06T07:26:25.746Z,578
2017-08-06T07:27:33.238Z,582
2017-08-06T07:28:40.717Z,584
2017-08-06T07:29:48.165Z,587
2017-08-06T07:30:55.338Z,575
2017-08-06T07:32:02.974Z,580
2017-08-06T07:33:10.459Z,585
2017-08-06T07:34:17.961Z,584
2017-08-06T07:35:25.747Z,588
2017-08-06T07:36:33.231Z,588
2017-08-06T07:37:40.721Z,593
2017-08-06T07:38:48.201Z,595
2017-08-06T07:39:55.353Z,600
2017-08-06T07:41:03.132Z,600
2017-08-06T07:42:10.613Z,603
2017-08-06T07:43:18.089Z,605
2017-08-06T07:44:25.591Z,607
2017-08-06T07:45:33.069Z,612
2017-08-06T07:46:40.852Z,613
2017-08-06T07:47:48.335Z,617
2017-08-06T07:48:55.829Z,620
2017-08-06T07:50:03.316Z,625
2017-08-06T07:51:10.812Z,625
2017-08-06T07:52:18.598Z,631
2017-08-06T07:53:26.094Z,634
2017-08-06T07:54:33.579Z,633
2017-08-06T07:55:41.066Z,638
2017-08-06T07:56:48.549Z,638
2017-08-06T07:57:55.992Z,640
2017-08-06T07:59:03.476Z,644
2017-08-06T08:00:10.956Z,647
2017-08-06T08:01:18.140Z,649
2017-08-06T08:02:25.625Z,655
2017-08-06T08:03:33.407Z,656
2017-08-06T08:04:40.556Z,659
2017-08-06T08:05:48.036Z,661
2017-08-06T08:06:55.518Z,666
2017-08-06T08:08:03.006Z,668
2017-08-06T08:09:10.797Z,672
2017-08-06T08:10:18.288Z,674
2017-08-06T08:11:25.777Z,676
2017-08-06T08:12:32.932Z,679
2017-08-06T08:13:40.092Z,682
2017-08-06T08:14:47.897Z,677
2017-08-06T08:15:55.051Z,679
2017-08-06T08:17:02.529Z,682
2017-08-06T08:18:10.023Z,685
2017-08-06T08:19:17.503Z,691
2017-08-06T08:20:24.962Z,691
2017-08-06T08:21:32.125Z,696
2017-08-06T08:22:39.618Z,697
2017-08-06T08:23:47.104Z,699
2017-08-06T08:24:54.596Z,701
2017-08-06T08:26:02.383Z,703
2017-08-06T08:27:09.866Z,705
2017-08-06T08:28:17.015Z,710
2017-08-06T08:29:24.498Z,711
2017-08-06T08:30:31.341Z,711
2017-08-06T08:31:39.144Z,711
2017-08-06T08:32:46.629Z,715
2017-08-06T08:33:54.129Z,717
2017-08-06T08:35:01.608Z,722
2017-08-06T08:36:09.086Z,723
2017-08-06T08:37:16.900Z,726
2017-08-06T08:38:24.393Z,726
2017-08-06T08:39:31.877Z,727
2017-08-06T08:40:39.034Z,727
2017-08-06T08:41:46.519Z,730
2017-08-06T08:42:53.976Z,732
2017-08-06T08:44:01.469Z,736
2017-08-06T08:45:08.947Z,736
2017-08-06T08:46:16.441Z,734
2017-08-06T08:47:23.921Z,736
2017-08-06T08:48:30.758Z,737
2017-08-06T08:49:38.244Z,736
2017-08-06T08:50:46.072Z,738
2017-08-06T08:51:53.751Z,739
2017-08-06T08:53:01.251Z,739
2017-08-06T08:54:08.731Z,739
2017-08-06T08:55:16.225Z,740
2017-08-06T08:56:24.022Z,741
2017-08-06T08:57:31.170Z,740
2017-08-06T08:58:38.664Z,743
2017-08-06T08:59:46.148Z,743
2017-08-06T09:00:53.641Z,743
2017-08-06T09:02:01.137Z,745
2017-08-06T09:03:08.634Z,749
2017-08-06T09:04:16.131Z,749
2017-08-06T09:05:23.301Z,747
2017-08-06T09:06:30.470Z,748
2017-08-06T09:07:38.275Z,750
2017-08-06T09:08:45.776Z,754
2017-08-06T09:09:53.306Z,755
2017-08-06T09:11:00.805Z,755
2017-08-06T09:12:08.305Z,754
2017-08-06T09:13:16.096Z,754
2017-08-06T09:14:23.595Z,757
2017-08-06T09:15:31.081Z,760
2017-08-06T09:16:38.576Z,760
2017-08-06T09:17:45.747Z,759
2017-08-06T09:18:53.538Z,759
2017-08-06T09:20:00.698Z,762
2017-08-06T09:21:08.186Z,759
2017-08-06T09:22:15.670Z,763
2017-08-06T09:23:23.156Z,762
2017-08-06T09:24:30.945Z,764
2017-08-06T09:25:38.432Z,763
2017-08-06T09:26:45.931Z,762
2017-08-06T09:27:53.423Z,763
2017-08-06T09:29:00.585Z,765
2017-08-06T09:30:08.373Z,768
2017-08-06T09:31:15.532Z,768
2017-08-06T09:32:23.024Z,766
2017-08-06T09:33:30.441Z,767
2017-08-06T09:34:37.927Z,767
2017-08-06T09:35:45.400Z,766
2017-08-06T09:36:52.883Z,771
2017-08-06T09:38:00.378Z,772
2017-08-06T09:39:07.865Z,774
2017-08-06T09:40:15.019Z,775
2017-08-06T09:41:22.806Z,776
2017-08-06T09:42:30.294Z,777
2017-08-06T09:43:37.784Z,783
2017-08-06T09:44:44.942Z,778
2017-08-06T09:45:52.464Z,780
2017-08-06T09:46:59.955Z,778
2017-08-06T09:48:07.126Z,778
2017-08-06T09:49:14.289Z,780
2017-08-06T09:50:21.795Z,778
2017-08-06T09:51:29.282Z,779
2017-08-06T09:52:37.118Z,780
2017-08-06T09:53:44.281Z,781
2017-08-06T09:54:51.776Z,777
2017-08-06T09:55:59.259Z,779
2017-08-06T09:57:06.752Z,780
2017-08-06T09:58:14.584Z,778
2017-08-06T09:59:22.072Z,778
2017-08-06T10:00:29.232Z,774
2017-08-06T10:01:36.730Z,774
2017-08-06T10:02:43.887Z,776
2017-08-06T10:03:51.721Z,778
2017-08-06T10:04:59.208Z,777
2017-08-06T10:06:06.372Z,781
2017-08-06T10:07:13.869Z,784
2017-08-06T10:08:21.365Z,787
2017-08-06T10:09:28.891Z,791
2017-08-06T10:10:36.378Z,790
2017-08-06T10:11:43.869Z,790
2017-08-06T10:12:51.358Z,793
2017-08-06T10:13:58.844Z,795
2017-08-06T10:15:06.680Z,795
2017-08-06T10:16:14.167Z,786
2017-08-06T10:17:21.653Z,784
2017-08-06T10:18:29.144Z,780
2017-08-06T10:19:36.635Z,780
2017-08-06T10:20:44.422Z,780
2017-08-06T10:21:51.577Z,783
2017-08-06T10:22:59.065Z,781
2017-08-06T10:24:06.566Z,786
2017-08-06T10:25:14.059Z,785
2017-08-06T10:26:21.863Z,786
2017-08-06T10:27:29.352Z,786
2017-08-06T10:28:36.833Z,785
2017-08-06T10:29:44.319Z,785
2017-08-06T10:30:51.815Z,791
2017-08-06T10:31:59.628Z,788
2017-08-06T10:33:07.117Z,790
2017-08-06T10:34:14.605Z,789
2017-08-06T10:35:22.086Z,793
2017-08-06T10:36:29.239Z,792
2017-08-06T10:37:37.043Z,795
2017-08-06T10:38:44.550Z,794
2017-08-06T10:39:52.041Z,794
2017-08-06T10:40:59.541Z,796
2017-08-06T10:42:07.038Z,799
2017-08-06T10:43:14.823Z,798
2017-08-06T10:44:22.318Z,799
2017-08-06T10:45:29.801Z,801
2017-08-06T10:46:37.297Z,799
2017-08-06T10:47:44.789Z,800
2017-08-06T10:48:52.578Z,801
2017-08-06T10:50:00.059Z,800
2017-08-06T10:51:07.231Z,798
2017-08-06T10:52:14.720Z,798
2017-08-06T10:53:22.207Z,800
2017-08-06T10:54:29.662Z,808
2017-08-06T10:55:37.153Z,811
2017-08-06T10:56:44.648Z,820
2017-08-06T10:57:51.831Z,820
2017-08-06T10:58:58.668Z,826
2017-08-06T11:00:06.457Z,824
2017-08-06T11:01:13.944Z,824
2017-08-06T11:02:21.832Z,820
2017-08-06T11:03:29.325Z,812
2017-08-06T11:04:36.817Z,808
2017-08-06T11:05:44.607Z,811
2017-08-06T11:06:52.327Z,819
2017-08-06T11:07:59.806Z,825
2017-08-06T11:09:07.302Z,818
2017-08-06T11:10:14.810Z,813
2017-08-06T11:11:22.583Z,808
2017-08-06T11:12:30.072Z,799
2017-08-06T11:13:37.562Z,803
2017-08-06T11:14:59.656Z,809
2017-08-06T11:16:07.143Z,813
2017-08-06T11:17:14.933Z,815
2017-08-06T11:18:22.426Z,816
2017-08-06T11:19:29.914Z,815
2017-08-06T11:20:37.399Z,818
2017-08-06T11:21:44.883Z,818
2017-08-06T11:22:52.672Z,821
2017-08-06T11:24:00.168Z,821
2017-08-06T11:25:08.878Z,821
2017-08-06T11:26:16.376Z,825
2017-08-06T11:27:23.859Z,823
2017-08-06T11:28:31.660Z,823
2017-08-06T11:29:39.141Z,822
2017-08-06T11:30:46.630Z,826
2017-08-06T11:31:54.120Z,823
2017-08-06T11:33:01.615Z,823
2017-08-06T11:34:09.405Z,826
2017-08-06T11:35:16.899Z,828
2017-08-06T11:36:24.393Z,828
2017-08-06T11:37:31.885Z,827
2017-08-06T11:38:39.040Z,825
2017-08-06T11:39:46.827Z,825
2017-08-06T11:40:54.310Z,823
2017-08-06T11:42:01.803Z,825
2017-08-06T11:43:09.296Z,831
2017-08-06T11:44:16.784Z,835
2017-08-06T11:45:24.577Z,837
2017-08-06T11:46:32.073Z,838
2017-08-06T11:47:39.576Z,839
2017-08-06T11:48:47.068Z,838
2017-08-06T11:49:54.233Z,839
2017-08-06T11:51:02.021Z,846
2017-08-06T11:52:09.183Z,840
2017-08-06T11:53:16.671Z,843
2017-08-06T11:54:24.166Z,847
2017-08-06T11:55:31.659Z,838
2017-08-06T11:56:39.449Z,833
2017-08-06T11:57:46.944Z,833
2017-08-06T11:58:54.433Z,831
2017-08-06T12:00:01.921Z,831
2017-08-06T12:01:09.417Z,830
2017-08-06T12:02:17.201Z,831
2017-08-06T12:03:24.701Z,831
2017-08-06T12:04:32.208Z,831
2017-08-06T12:05:39.712Z,825
2017-08-06T12:06:46.879Z,821
2017-08-06T12:07:54.669Z,819
2017-08-06T12:09:01.825Z,818
2017-08-06T12:10:09.311Z,821
2017-08-06T12:11:16.804Z,827
2017-08-06T12:12:24.290Z,836
2017-08-06T12:13:46.665Z,844
2017-08-06T12:14:54.149Z,843
2017-08-06T12:16:01.305Z,860
2017-08-06T12:17:08.791Z,865
2017-08-06T12:18:16.282Z,867
2017-08-06T12:19:24.074Z,867
2017-08-06T12:20:31.235Z,866
2017-08-06T12:21:38.395Z,857
2017-08-06T12:22:45.546Z,851
2017-08-06T12:23:53.032Z,846
2017-08-06T12:25:00.499Z,846
2017-08-06T12:26:07.666Z,845
2017-08-06T12:27:14.828Z,845
2017-08-06T12:28:21.989Z,844
2017-08-06T12:29:29.482Z,842
2017-08-06T12:30:37.286Z,844
2017-08-06T12:31:44.782Z,842
2017-08-06T12:32:52.268Z,840
2017-08-06T12:33:59.769Z,840
2017-08-06T12:35:07.263Z,840
2017-08-06T12:36:15.051Z,843
2017-08-06T12:37:22.207Z,849
2017-08-06T12:38:29.699Z,846
2017-08-06T12:39:36.859Z,843
2017-08-06T12:40:44.365Z,841
2017-08-06T12:41:52.156Z,841
2017-08-06T12:42:59.647Z,841
2017-08-06T12:44:06.803Z,840
2017-08-06T12:45:13.964Z,854
2017-08-06T12:46:21.455Z,860
2017-08-06T12:47:29.243Z,864
2017-08-06T12:48:36.733Z,865
2017-08-06T12:49:44.227Z,868
2017-08-06T12:50:51.707Z,867
2017-08-06T12:51:59.197Z,863
2017-08-06T12:53:08.437Z,855
2017-08-06T12:54:15.928Z,846
2017-08-06T12:55:23.417Z,840
2017-08-06T12:56:30.914Z,837
2017-08-06T12:57:38.400Z,845
2017-08-06T12:58:46.189Z,854
2017-08-06T12:59:53.672Z,861
2017-08-06T13:01:01.167Z,863
2017-08-06T13:02:08.003Z,871
2017-08-06T13:03:15.494Z,870
2017-08-06T13:04:23.278Z,873
2017-08-06T13:05:30.769Z,868
2017-08-06T13:06:38.264Z,873
2017-08-06T13:07:45.755Z,865
2017-08-06T13:08:52.912Z,864
2017-08-06T13:10:00.694Z,859
2017-08-06T13:11:07.850Z,858
2017-08-06T13:12:15.012Z,861
2017-08-06T13:13:22.504Z,855
2017-08-06T13:14:30.049Z,858
2017-08-06T13:15:38.966Z,857
2017-08-06T13:16:46.460Z,854
2017-08-06T13:17:53.949Z,849
2017-08-06T13:19:01.441Z,847
2017-08-06T13:20:08.923Z,844
2017-08-06T13:21:16.740Z,845
2017-08-06T13:22:23.908Z,852
2017-08-06T13:23:31.404Z,869
2017-08-06T13:24:38.519Z,865
2017-08-06T13:25:46.010Z,861
2017-08-06T13:26:53.805Z,863
2017-08-06T13:28:01.293Z,864
2017-08-06T13:29:08.785Z,861
2017-08-06T13:30:16.271Z,866
2017-08-06T13:31:23.765Z,866
2017-08-06T13:32:31.551Z,872
2017-08-06T13:33:39.082Z,880
2017-08-06T13:34:46.572Z,884
2017-08-06T13:35:54.084Z,877
2017-08-06T13:37:01.580Z,871
2017-08-06T13:38:09.417Z,870
2017-08-06T13:39:16.933Z,867
2017-08-06T13:40:24.427Z,869
2017-08-06T13:41:31.924Z,868
2017-08-06T13:42:39.418Z,866
2017-08-06T13:43:47.257Z,870
2017-08-06T13:44:54.747Z,870
2017-08-06T13:46:02.241Z,871
2017-08-06T13:47:09.729Z,864
2017-08-06T13:48:17.221Z,864
2017-08-06T13:49:25.060Z,864
2017-08-06T13:50:32.570Z,865
2017-08-06T13:51:40.059Z,868
2017-08-06T13:52:47.552Z,871
2017-08-06T13:53:55.044Z,869
2017-08-06T13:55:02.831Z,864
2017-08-06T13:56:09.994Z,861
2017-08-06T13:57:17.479Z,866
2017-08-06T13:58:24.994Z,869
2017-08-06T13:59:32.484Z,872
2017-08-06T14:00:40.280Z,871
2017-08-06T14:01:47.776Z,872
2017-08-06T14:02:55.267Z,873
2017-08-06T14:04:02.764Z,872
2017-08-06T14:05:09.941Z,875
2017-08-06T14:06:17.733Z,875
2017-08-06T14:07:25.220Z,875
2017-08-06T14:08:32.384Z,877
2017-08-06T14:09:39.869Z,873
2017-08-06T14:10:47.353Z,872
2017-08-06T14:11:55.142Z,870
2017-08-06T14:13:02.629Z,875
2017-08-06T14:14:10.122Z,871
2017-08-06T14:15:17.612Z,870
2017-08-06T14:16:25.104Z,870
2017-08-06T14:17:32.958Z,874
2017-08-06T14:18:40.454Z,880
2017-08-06T14:19:47.944Z,879
2017-08-06T14:20:55.437Z,879
2017-08-06T14:22:02.924Z,879
2017-08-06T14:23:10.724Z,878
2017-08-06T14:24:18.207Z,881
2017-08-06T14:25:25.699Z,881
2017-08-06T14:26:33.196Z,874
2017-08-06T14:27:40.691Z,879
2017-08-06T14:28:47.824Z,873
2017-08-06T14:29:55.154Z,875
2017-08-06T14:31:02.318Z,877
2017-08-06T14:32:09.811Z,870
2017-08-06T14:33:16.972Z,866
2017-08-06T14:34:24.766Z,868
2017-08-06T14:35:32.255Z,874
2017-08-06T14:36:39.750Z,875
2017-08-06T14:37:47.240Z,874
2017-08-06T14:38:54.730Z,875
2017-08-06T14:40:02.196Z,879
2017-08-06T14:41:09.686Z,879
2017-08-06T14:42:17.180Z,879
2017-08-06T14:43:24.698Z,872
2017-08-06T14:44:31.893Z,874
2017-08-06T14:45:39.050Z,872
2017-08-06T14:46:46.549Z,869
2017-08-06T14:47:54.039Z,872
2017-08-06T14:49:01.834Z,872
2017-08-06T14:50:09.344Z,875
2017-08-06T14:51:16.828Z,875
2017-08-06T14:52:24.322Z,876
2017-08-06T14:53:31.826Z,877
2017-08-06T14:54:39.615Z,876
2017-08-06T14:55:46.783Z,879
2017-08-06T14:56:54.280Z,877
2017-08-06T14:58:01.779Z,874
2017-08-06T14:59:09.312Z,875
2017-08-06T15:00:17.154Z,880
2017-08-06T15:01:24.649Z,877
2017-08-06T15:02:32.146Z,877
2017-08-06T15:03:39.668Z,878
2017-08-06T15:04:47.162Z,879
2017-08-06T15:05:54.673Z,884
2017-08-06T15:07:02.163Z,880
2017-08-06T15:08:09.656Z,882
2017-08-06T15:09:17.145Z,880
2017-08-06T15:10:24.984Z,880
2017-08-06T15:11:47.114Z,882
2017-08-06T15:12:54.599Z,880
2017-08-06T15:14:02.107Z,881
2017-08-06T15:15:09.587Z,882
2017-08-06T15:16:17.449Z,883
2017-08-06T15:17:24.283Z,885
2017-08-06T15:18:31.458Z,888
2017-08-06T15:19:38.958Z,885
2017-08-06T15:20:46.439Z,887
2017-08-06T15:21:53.960Z,885
2017-08-06T15:23:01.461Z,885
2017-08-06T15:24:08.614Z,879
2017-08-06T15:25:15.776Z,877
2017-08-06T15:26:24.502Z,879
2017-08-06T15:27:31.667Z,883
2017-08-06T15:28:39.156Z,888
2017-08-06T15:29:46.644Z,890
2017-08-06T15:30:54.134Z,889